Time;durP1;ratioP1;P1;durP2;ratioP2;P2;SDS_P1;SDS_P2;PMS_P1;PMS_P2;Temp;Humidity;BMP_temperature;BMP_pressure;BME280_temperature;BME280_humidity;BME280_pressure;Samples;Min_cycle;Max_cycle;Signal;HPM_P1;HPM_P2
2024/02/23 00:00:11;;;;;;;14.98;3.42;;;;;;;;;;5003946;28;25063;-67
2024/02/23 00:02:37;;;;;;;17.70;3.15;;;;;;;;;;5008094;28;25062;-67
2024/02/23 00:05:04;;;;;;;9.77;2.63;;;;;;;;;;5001343;28;25087;-67
2024/02/23 00:07:30;;;;;;;23.92;4.35;;;;;;;;;;4994578;28;25057;-69
2024/02/23 00:09:56;;;;;;;18.55;3.20;;;;;;;;;;4984702;28;24973;-68
2024/02/23 00:12:22;;;;;;;14.68;2.97;;;;;;;;;;4987491;28;25130;-66
2024/02/23 00:14:48;;;;;;;14.27;2.70;;;;;;;;;;5004782;28;25061;-68
2024/02/23 00:17:14;;;;;;;17.30;3.53;;;;;;;;;;5024581;28;25133;-67
2024/02/23 00:19:40;;;;;;;13.80;2.90;;;;;;;;;;5021002;28;25088;-71
2024/02/23 00:22:06;;;;;;;13.25;2.38;;;;;;;;;;5017344;28;25073;-69
2024/02/23 00:24:32;;;;;;;15.80;3.40;;;;;;;;;;5017724;28;25125;-68
2024/02/23 00:26:58;;;;;;;13.45;2.53;;;;;;;;;;5006203;28;25059;-68
2024/02/23 00:29:24;;;;;;;12.10;3.00;;;;;;;;;;5005821;28;25067;-67
2024/02/23 00:31:50;;;;;;;12.07;3.30;;;;;;;;;;5002674;28;25088;-71
2024/02/23 00:34:17;;;;;;;18.73;3.45;;;;;;;;;;4990817;28;25129;-71
2024/02/23 00:36:44;;;;;;;16.50;2.78;;;;;;;;;;4984515;28;24710;-65
2024/02/23 00:39:10;;;;;;;13.88;2.92;;;;;;;;;;5007372;28;25080;-68
2024/02/23 00:41:37;;;;;;;14.23;2.35;;;;;;;;;;5003414;28;25064;-67
2024/02/23 00:44:03;;;;;;;15.30;3.83;;;;;;;;;;4989868;28;25086;-69
2024/02/23 00:46:29;;;;;;;18.50;3.63;;;;;;;;;;4993204;28;25104;-65
2024/02/23 00:48:55;;;;;;;10.63;2.35;;;;;;;;;;4989519;28;25099;-65
2024/02/23 00:51:21;;;;;;;8.07;2.40;;;;;;;;;;4991009;28;25062;-65
2024/02/23 00:53:47;;;;;;;17.65;3.13;;;;;;;;;;5003620;28;25110;-65
2024/02/23 00:56:13;;;;;;;19.08;2.90;;;;;;;;;;5005448;28;25081;-66
2024/02/23 00:58:40;;;;;;;16.65;3.75;;;;;;;;;;5004620;28;25141;-68
2024/02/23 01:01:06;;;;;;;13.45;3.17;;;;;;;;;;5001173;28;25054;-65
2024/02/23 01:03:32;;;;;;;12.02;2.40;;;;;;;;;;5001612;28;25058;-68
2024/02/23 01:05:58;;;;;;;12.90;2.78;;;;;;;;;;4985163;28;25064;-66
2024/02/23 01:08:24;;;;;;;16.70;3.38;;;;;;;;;;4992884;28;25088;-66
2024/02/23 01:10:50;;;;;;;19.83;3.42;;;;;;;;;;5004111;28;25094;-68
2024/02/23 01:13:16;;;;;;;13.30;3.10;;;;;;;;;;5004901;28;25158;-68
2024/02/23 01:15:43;;;;;;;12.32;3.05;;;;;;;;;;4997664;28;25076;-65
2024/02/23 01:18:09;;;;;;;14.55;3.95;;;;;;;;;;5009282;28;25067;-65
2024/02/23 01:20:35;;;;;;;13.15;2.92;;;;;;;;;;5009581;28;25063;-64
2024/02/23 01:23:01;;;;;;;16.33;3.83;;;;;;;;;;5005015;28;25140;-65
2024/02/23 01:25:27;;;;;;;13.48;2.65;;;;;;;;;;5005464;28;25068;-66
2024/02/23 01:27:53;;;;;;;12.32;2.58;;;;;;;;;;5006752;28;25055;-64
2024/02/23 01:30:19;;;;;;;10.80;3.08;;;;;;;;;;5002808;28;25071;-66
2024/02/23 01:32:46;;;;;;;11.13;2.28;;;;;;;;;;4995100;28;25104;-64
2024/02/23 01:35:12;;;;;;;16.23;3.25;;;;;;;;;;4995279;28;25147;-64
2024/02/23 01:37:38;;;;;;;12.25;2.47;;;;;;;;;;5007126;28;25144;-65
2024/02/23 01:40:04;;;;;;;22.80;3.53;;;;;;;;;;4992785;28;25105;-66
2024/02/23 01:42:30;;;;;;;17.95;2.90;;;;;;;;;;5001817;28;25043;-64
2024/02/23 01:44:56;;;;;;;18.10;3.22;;;;;;;;;;5009444;28;25161;-64
2024/02/23 01:47:23;;;;;;;12.93;2.63;;;;;;;;;;5001640;28;25057;-66
2024/02/23 01:49:49;;;;;;;11.13;2.38;;;;;;;;;;5008591;28;25085;-64
2024/02/23 01:52:16;;;;;;;10.18;2.08;;;;;;;;;;4980156;28;25101;-65
2024/02/23 01:54:42;;;;;;;14.63;2.95;;;;;;;;;;4987220;28;25146;-64
2024/02/23 01:57:09;;;;;;;11.15;2.75;;;;;;;;;;5004463;28;25062;-64
2024/02/23 01:59:37;;;;;;;11.68;3.28;;;;;;;;;;5006477;28;25075;-66
2024/02/23 02:02:03;;;;;;;18.80;2.90;;;;;;;;;;5006030;28;25073;-65
2024/02/23 02:04:29;;;;;;;16.65;3.65;;;;;;;;;;5006761;28;25050;-63
2024/02/23 02:06:56;;;;;;;14.30;2.75;;;;;;;;;;5000562;28;25074;-63
2024/02/23 02:09:22;;;;;;;13.35;3.13;;;;;;;;;;5010430;28;25059;-66
2024/02/23 02:11:48;;;;;;;14.98;3.28;;;;;;;;;;4981638;28;25157;-65
2024/02/23 02:14:15;;;;;;;12.23;2.92;;;;;;;;;;4996471;28;25060;-65
2024/02/23 02:16:41;;;;;;;9.85;3.17;;;;;;;;;;5004653;28;25146;-65
2024/02/23 02:19:07;;;;;;;16.42;3.00;;;;;;;;;;4998054;28;25071;-64
2024/02/23 02:21:34;;;;;;;11.50;2.55;;;;;;;;;;4985866;28;25095;-64
2024/02/23 02:24:00;;;;;;;13.32;3.05;;;;;;;;;;5001699;28;25090;-66
2024/02/23 02:26:26;;;;;;;15.98;3.33;;;;;;;;;;5003278;28;25123;-65
2024/02/23 02:28:52;;;;;;;15.35;3.53;;;;;;;;;;5008092;28;25095;-65
2024/02/23 02:31:18;;;;;;;14.98;3.25;;;;;;;;;;5019537;28;25071;-64
2024/02/23 02:33:44;;;;;;;7.57;2.03;;;;;;;;;;5029381;28;25104;-65
2024/02/23 02:36:11;;;;;;;14.32;3.78;;;;;;;;;;5028150;28;25065;-66
2024/02/23 02:38:37;;;;;;;9.48;3.17;;;;;;;;;;5026405;28;25069;-64
2024/02/23 02:41:04;;;;;;;10.05;1.85;;;;;;;;;;5007942;28;25071;-65
2024/02/23 02:43:30;;;;;;;18.10;2.83;;;;;;;;;;5005895;28;25086;-64
2024/02/23 02:45:56;;;;;;;10.52;2.60;;;;;;;;;;5003680;28;25052;-66
2024/02/23 02:48:23;;;;;;;11.18;2.50;;;;;;;;;;5007909;28;25051;-65
2024/02/23 02:50:49;;;;;;;13.43;3.15;;;;;;;;;;4993982;28;25055;-65
2024/02/23 02:53:15;;;;;;;16.02;3.08;;;;;;;;;;5006481;28;25098;-66
2024/02/23 02:55:44;;;;;;;15.75;3.05;;;;;;;;;;4996027;28;25080;-63
2024/02/23 02:58:14;;;;;;;13.85;3.22;;;;;;;;;;4998159;28;25088;-65
2024/02/23 03:00:40;;;;;;;14.55;3.67;;;;;;;;;;5000629;28;25090;-66
2024/02/23 03:03:06;;;;;;;13.50;3.15;;;;;;;;;;4980861;28;25072;-63
2024/02/23 03:05:32;;;;;;;14.23;3.10;;;;;;;;;;4999668;28;25047;-64
2024/02/23 03:07:58;;;;;;;9.63;2.47;;;;;;;;;;5005053;28;25076;-66
2024/02/23 03:10:24;;;;;;;15.35;3.15;;;;;;;;;;5000987;28;25057;-64
2024/02/23 03:12:50;;;;;;;12.95;2.60;;;;;;;;;;4996799;28;25106;-65
2024/02/23 03:15:16;;;;;;;11.40;2.63;;;;;;;;;;4978768;28;25052;-65
2024/02/23 03:17:42;;;;;;;15.05;2.63;;;;;;;;;;4987014;28;25054;-64
2024/02/23 03:20:08;;;;;;;10.68;2.85;;;;;;;;;;4995787;28;25070;-65
2024/02/23 03:22:35;;;;;;;11.13;2.28;;;;;;;;;;4994694;28;25057;-64
2024/02/23 03:25:07;;;;;;;8.07;2.85;;;;;;;;;;4999409;28;25096;-63
2024/02/23 03:27:34;;;;;;;12.68;2.72;;;;;;;;;;4993853;28;25136;-64
2024/02/23 03:30:00;;;;;;;13.48;3.30;;;;;;;;;;5003005;28;25066;-63
2024/02/23 03:32:26;;;;;;;14.70;3.28;;;;;;;;;;4976392;28;25063;-64
2024/02/23 03:34:52;;;;;;;14.10;2.55;;;;;;;;;;4990759;28;25168;-64
2024/02/23 03:37:18;;;;;;;14.48;2.95;;;;;;;;;;5002634;28;25128;-63
2024/02/23 03:39:44;;;;;;;11.00;2.70;;;;;;;;;;4995642;28;25067;-63
2024/02/23 03:42:10;;;;;;;16.75;4.32;;;;;;;;;;4988166;28;25109;-67
2024/02/23 03:44:36;;;;;;;17.90;3.60;;;;;;;;;;4991355;28;25055;-64
2024/02/23 03:47:02;;;;;;;12.65;3.63;;;;;;;;;;5002707;28;25052;-63
2024/02/23 03:49:28;;;;;;;15.52;2.72;;;;;;;;;;4992731;28;25055;-64
2024/02/23 03:51:54;;;;;;;15.15;3.47;;;;;;;;;;4999605;28;25063;-63
2024/02/23 03:54:20;;;;;;;19.60;3.00;;;;;;;;;;4999831;28;25056;-66
2024/02/23 03:56:46;;;;;;;12.32;4.32;;;;;;;;;;4994707;28;25076;-64
2024/02/23 03:59:12;;;;;;;15.18;3.67;;;;;;;;;;4999207;28;25135;-65
2024/02/23 04:01:39;;;;;;;10.48;2.53;;;;;;;;;;4997735;28;25073;-64
2024/02/23 04:04:05;;;;;;;13.98;3.60;;;;;;;;;;4997648;28;25074;-66
2024/02/23 04:06:31;;;;;;;23.08;4.07;;;;;;;;;;4998868;28;25130;-63
2024/02/23 04:08:57;;;;;;;13.85;2.85;;;;;;;;;;4978645;28;25070;-63
2024/02/23 04:11:23;;;;;;;11.68;3.05;;;;;;;;;;5004455;28;25094;-63
2024/02/23 04:13:49;;;;;;;10.32;2.55;;;;;;;;;;4998296;28;25182;-66
2024/02/23 04:16:15;;;;;;;14.45;2.97;;;;;;;;;;4987557;28;25074;-65
2024/02/23 04:18:41;;;;;;;18.10;3.03;;;;;;;;;;4993083;28;25076;-66
2024/02/23 04:21:07;;;;;;;16.02;2.65;;;;;;;;;;4993475;28;25098;-65
2024/02/23 04:23:33;;;;;;;10.80;2.80;;;;;;;;;;4999041;28;25131;-68
2024/02/23 04:25:59;;;;;;;10.77;2.85;;;;;;;;;;5003036;28;25062;-65
2024/02/23 04:28:27;;;;;;;15.00;3.03;;;;;;;;;;4999879;28;25059;-65
2024/02/23 04:30:53;;;;;;;13.65;2.83;;;;;;;;;;5003976;28;25063;-64
2024/02/23 04:33:19;;;;;;;14.15;3.05;;;;;;;;;;5008805;28;25069;-64
2024/02/23 04:35:45;;;;;;;14.13;3.42;;;;;;;;;;4997356;28;25075;-65
2024/02/23 04:38:12;;;;;;;11.65;2.47;;;;;;;;;;5005805;28;25073;-64
2024/02/23 04:40:37;;;;;;;10.25;3.42;;;;;;;;;;5001017;28;25095;-64
2024/02/23 04:43:03;;;;;;;13.60;3.70;;;;;;;;;;5001344;28;25149;-64
2024/02/23 04:45:29;;;;;;;15.82;3.10;;;;;;;;;;5004692;28;25076;-64
2024/02/23 04:47:55;;;;;;;13.13;3.10;;;;;;;;;;5015767;28;25057;-64
2024/02/23 04:50:22;;;;;;;13.60;3.28;;;;;;;;;;5025223;28;25068;-64
2024/02/23 04:52:50;;;;;;;10.55;3.60;;;;;;;;;;5009966;28;25046;-65
2024/02/23 04:55:16;;;;;;;11.30;4.13;;;;;;;;;;5009052;28;25135;-64
2024/02/23 04:57:42;;;;;;;15.27;4.97;;;;;;;;;;5008466;28;25528;-65
2024/02/23 05:00:08;;;;;;;15.95;5.28;;;;;;;;;;5002903;28;25064;-65
2024/02/23 05:02:35;;;;;;;13.07;4.18;;;;;;;;;;4998258;28;25056;-65
2024/02/23 05:05:05;;;;;;;12.85;4.05;;;;;;;;;;5005768;28;25051;-63
2024/02/23 05:07:32;;;;;;;12.98;3.60;;;;;;;;;;4991892;28;25136;-65
2024/02/23 05:09:58;;;;;;;12.30;4.47;;;;;;;;;;5005051;28;25138;-65
2024/02/23 05:12:24;;;;;;;9.75;4.50;;;;;;;;;;5000516;28;25135;-65
2024/02/23 05:14:50;;;;;;;14.07;4.20;;;;;;;;;;4989002;28;25125;-63
2024/02/23 05:17:16;;;;;;;12.18;3.92;;;;;;;;;;4999346;28;25138;-64
2024/02/23 05:19:42;;;;;;;16.63;4.40;;;;;;;;;;5008678;28;25047;-63
2024/02/23 05:22:08;;;;;;;16.73;3.65;;;;;;;;;;4991857;28;25095;-65
2024/02/23 05:24:34;;;;;;;13.70;3.70;;;;;;;;;;5006279;28;25091;-64
2024/02/23 05:27:02;;;;;;;13.75;3.80;;;;;;;;;;5008473;28;25068;-65
2024/02/23 05:29:28;;;;;;;12.85;3.63;;;;;;;;;;5002110;28;25059;-65
2024/02/23 05:31:54;;;;;;;15.95;3.70;;;;;;;;;;5001035;28;25052;-65
2024/02/23 05:34:20;;;;;;;10.65;3.25;;;;;;;;;;5008430;28;25051;-65
2024/02/23 05:36:47;;;;;;;8.32;3.20;;;;;;;;;;5008555;28;25136;-64
2024/02/23 05:39:15;;;;;;;7.40;3.10;;;;;;;;;;4986350;28;25051;-64
2024/02/23 05:41:41;;;;;;;6.32;3.13;;;;;;;;;;5001880;28;25049;-65
2024/02/23 05:44:07;;;;;;;14.57;3.92;;;;;;;;;;5007955;28;25076;-65
2024/02/23 05:46:36;;;;;;;12.70;3.63;;;;;;;;;;4986717;28;25163;-64
2024/02/23 05:49:04;;;;;;;10.48;3.30;;;;;;;;;;5004980;28;25073;-65
2024/02/23 05:51:30;;;;;;;10.85;3.85;;;;;;;;;;5004854;28;25060;-65
2024/02/23 05:53:56;;;;;;;12.30;2.90;;;;;;;;;;5002677;28;25170;-65
2024/02/23 05:56:23;;;;;;;10.70;3.08;;;;;;;;;;5005980;28;25145;-65
2024/02/23 05:58:50;;;;;;;7.50;2.72;;;;;;;;;;4998671;28;25063;-63
2024/02/23 06:01:16;;;;;;;9.80;2.67;;;;;;;;;;5002371;28;25051;-64
2024/02/23 06:03:42;;;;;;;8.57;2.72;;;;;;;;;;4982619;28;25110;-65
2024/02/23 06:06:08;;;;;;;8.27;2.22;;;;;;;;;;5004690;28;25108;-65
2024/02/23 06:08:34;;;;;;;13.68;3.08;;;;;;;;;;5003188;28;25143;-66
2024/02/23 06:11:00;;;;;;;8.00;2.95;;;;;;;;;;5000441;28;25076;-63
2024/02/23 06:13:26;;;;;;;11.23;2.85;;;;;;;;;;4986236;28;25051;-62
2024/02/23 06:15:53;;;;;;;11.77;2.90;;;;;;;;;;4982173;28;25127;-64
2024/02/23 06:18:19;;;;;;;9.32;2.65;;;;;;;;;;4998829;28;25133;-66
2024/02/23 06:20:45;;;;;;;10.32;3.10;;;;;;;;;;4996987;28;25073;-65
2024/02/23 06:23:11;;;;;;;8.63;2.88;;;;;;;;;;4981259;28;25116;-65
2024/02/23 06:25:37;;;;;;;7.82;2.67;;;;;;;;;;5004350;28;25069;-65
2024/02/23 06:28:03;;;;;;;9.57;3.05;;;;;;;;;;4991773;28;25153;-65
2024/02/23 06:30:29;;;;;;;11.65;3.20;;;;;;;;;;5006389;28;25132;-64
2024/02/23 06:32:55;;;;;;;9.30;2.60;;;;;;;;;;5006933;28;25073;-65
2024/02/23 06:35:21;;;;;;;9.15;3.42;;;;;;;;;;4987471;28;25129;-67
2024/02/23 06:37:47;;;;;;;11.43;3.20;;;;;;;;;;5004610;28;25146;-66
2024/02/23 06:40:14;;;;;;;8.77;2.60;;;;;;;;;;4999411;28;25126;-63
2024/02/23 06:42:40;;;;;;;8.07;2.65;;;;;;;;;;5003912;28;25100;-65
2024/02/23 06:45:06;;;;;;;7.57;3.08;;;;;;;;;;5004338;28;25102;-68
2024/02/23 06:47:32;;;;;;;11.27;3.60;;;;;;;;;;4985601;28;25086;-65
2024/02/23 06:49:58;;;;;;;12.60;4.97;;;;;;;;;;5002710;28;25060;-66
2024/02/23 06:52:26;;;;;;;12.30;3.17;;;;;;;;;;5002837;28;25055;-65
2024/02/23 06:54:51;;;;;;;8.48;2.97;;;;;;;;;;4997473;28;25154;-65
2024/02/23 06:57:18;;;;;;;8.80;3.08;;;;;;;;;;4998199;28;25062;-66
2024/02/23 06:59:44;;;;;;;7.88;2.58;;;;;;;;;;4987805;28;25071;-66
2024/02/23 07:02:10;;;;;;;17.58;3.20;;;;;;;;;;5002680;28;25090;-66
2024/02/23 07:04:36;;;;;;;10.10;2.33;;;;;;;;;;4991846;28;25057;-65
2024/02/23 07:07:08;;;;;;;11.30;2.85;;;;;;;;;;5022818;28;25073;-66
2024/02/23 07:09:34;;;;;;;8.32;2.55;;;;;;;;;;5008478;28;25052;-66
2024/02/23 07:12:01;;;;;;;15.75;3.63;;;;;;;;;;5017331;28;25100;-64
2024/02/23 07:14:27;;;;;;;9.32;2.50;;;;;;;;;;5014330;28;25063;-68
2024/02/23 07:16:53;;;;;;;8.75;2.55;;;;;;;;;;5006063;28;25065;-66
2024/02/23 07:19:19;;;;;;;11.88;2.83;;;;;;;;;;4990084;28;25048;-64
2024/02/23 07:21:46;;;;;;;10.32;2.20;;;;;;;;;;5001819;28;25140;-66
2024/02/23 07:24:12;;;;;;;13.30;3.22;;;;;;;;;;4999934;28;25054;-65
2024/02/23 07:26:38;;;;;;;11.73;2.28;;;;;;;;;;4992401;28;25071;-66
2024/02/23 07:29:04;;;;;;;14.55;2.90;;;;;;;;;;5002857;28;25061;-66
2024/02/23 07:31:30;;;;;;;14.40;2.83;;;;;;;;;;4997133;28;25068;-65
2024/02/23 07:33:56;;;;;;;16.75;2.30;;;;;;;;;;5002562;28;25134;-64
2024/02/23 07:36:22;;;;;;;15.52;2.90;;;;;;;;;;4995732;28;25071;-66
2024/02/23 07:38:48;;;;;;;11.90;2.20;;;;;;;;;;4986945;28;25092;-66
2024/02/23 07:41:15;;;;;;;11.25;2.38;;;;;;;;;;4999415;28;25070;-67
2024/02/23 07:43:41;;;;;;;10.60;2.50;;;;;;;;;;5005502;28;25106;-67
2024/02/23 07:46:10;;;;;;;22.77;3.38;;;;;;;;;;5000817;28;25162;-67
2024/02/23 07:48:36;;;;;;;13.23;2.38;;;;;;;;;;5000083;28;25074;-66
2024/02/23 07:51:03;;;;;;;10.98;3.10;;;;;;;;;;5002294;28;25043;-67
2024/02/23 07:53:29;;;;;;;13.38;2.83;;;;;;;;;;4999953;28;25094;-67
2024/02/23 07:55:55;;;;;;;18.27;2.75;;;;;;;;;;4999142;28;25054;-66
2024/02/23 07:58:21;;;;;;;6.82;1.52;;;;;;;;;;4994395;28;25061;-67
2024/02/23 08:00:47;;;;;;;13.50;2.40;;;;;;;;;;5001590;28;25088;-67
2024/02/23 08:03:14;;;;;;;9.60;2.00;;;;;;;;;;4997030;28;25092;-66
2024/02/23 08:05:40;;;;;;;13.73;2.55;;;;;;;;;;4999061;28;25065;-67
2024/02/23 08:08:06;;;;;;;16.73;3.15;;;;;;;;;;4996509;28;25080;-66
2024/02/23 08:10:35;;;;;;;19.52;3.10;;;;;;;;;;5001324;28;25061;-67
2024/02/23 08:13:01;;;;;;;11.85;2.65;;;;;;;;;;4983922;28;25090;-66
2024/02/23 08:15:27;;;;;;;15.43;3.28;;;;;;;;;;4982674;28;25103;-69
2024/02/23 08:17:54;;;;;;;11.82;2.88;;;;;;;;;;4998188;28;25476;-66
2024/02/23 08:20:20;;;;;;;11.57;3.05;;;;;;;;;;5002498;28;25112;-67
2024/02/23 08:22:46;;;;;;;10.23;3.15;;;;;;;;;;5002717;28;25096;-65
2024/02/23 08:25:12;;;;;;;14.35;2.85;;;;;;;;;;4989546;28;25124;-66
2024/02/23 08:27:38;;;;;;;16.00;4.13;;;;;;;;;;5001374;28;25051;-66
2024/02/23 08:30:04;;;;;;;11.65;2.53;;;;;;;;;;5000586;28;25059;-67
2024/02/23 08:32:30;;;;;;;12.88;2.78;;;;;;;;;;5002273;28;25089;-69
2024/02/23 08:34:59;;;;;;;12.23;3.92;;;;;;;;;;4998014;28;25097;-67
2024/02/23 08:37:26;;;;;;;20.90;3.53;;;;;;;;;;5000003;28;25055;-68
2024/02/23 08:39:52;;;;;;;7.38;2.90;;;;;;;;;;5000450;28;25062;-68
2024/02/23 08:42:18;;;;;;;12.07;2.88;;;;;;;;;;5001248;28;25165;-67
2024/02/23 08:44:44;;;;;;;16.17;3.80;;;;;;;;;;4996374;28;25079;-68
2024/02/23 08:47:10;;;;;;;6.07;3.15;;;;;;;;;;4997747;28;25057;-67
2024/02/23 08:49:36;;;;;;;18.00;3.47;;;;;;;;;;5000175;28;25146;-71
2024/02/23 08:52:03;;;;;;;12.30;3.45;;;;;;;;;;4999741;28;25135;-67
2024/02/23 08:54:29;;;;;;;11.60;2.85;;;;;;;;;;5006751;28;25059;-67
2024/02/23 08:56:55;;;;;;;12.15;3.22;;;;;;;;;;4995734;28;25045;-66
2024/02/23 08:59:22;;;;;;;14.15;3.40;;;;;;;;;;4990089;28;25056;-70
2024/02/23 09:01:47;;;;;;;8.90;2.80;;;;;;;;;;5001705;28;25144;-67
2024/02/23 09:04:14;;;;;;;14.25;3.45;;;;;;;;;;4999473;28;25066;-71
2024/02/23 09:06:40;;;;;;;8.85;2.55;;;;;;;;;;5001528;28;25092;-66
2024/02/23 09:09:06;;;;;;;7.88;2.78;;;;;;;;;;4988040;28;25099;-69
2024/02/23 09:11:32;;;;;;;10.63;2.55;;;;;;;;;;4998899;28;25073;-67
2024/02/23 09:13:58;;;;;;;7.32;2.15;;;;;;;;;;5003951;28;25063;-68
2024/02/23 09:16:24;;;;;;;4.57;1.55;;;;;;;;;;5002836;28;25039;-66
2024/02/23 09:18:50;;;;;;;11.20;2.25;;;;;;;;;;5016344;28;25079;-66
2024/02/23 09:21:16;;;;;;;8.70;2.05;;;;;;;;;;5024595;28;25059;-69
2024/02/23 09:23:42;;;;;;;10.95;2.45;;;;;;;;;;5012717;28;25074;-66
2024/02/23 09:26:11;;;;;;;5.25;1.90;;;;;;;;;;5020595;28;25081;-66
2024/02/23 09:28:38;;;;;;;11.32;2.20;;;;;;;;;;5012388;28;25067;-67
2024/02/23 09:31:04;;;;;;;8.95;2.10;;;;;;;;;;5002189;28;25076;-66
2024/02/23 09:33:31;;;;;;;9.40;2.50;;;;;;;;;;5002034;28;24945;-66
2024/02/23 09:35:57;;;;;;;7.97;2.05;;;;;;;;;;5001677;28;25067;-67
2024/02/23 09:38:27;;;;;;;11.57;2.42;;;;;;;;;;4996148;28;25066;-67
2024/02/23 09:40:53;;;;;;;9.57;2.33;;;;;;;;;;4986817;28;25061;-69
2024/02/23 09:43:22;;;;;;;7.57;2.05;;;;;;;;;;4992186;28;25058;-67
2024/02/23 09:45:48;;;;;;;8.30;2.08;;;;;;;;;;4984251;28;25064;-66
2024/02/23 09:48:15;;;;;;;7.68;2.00;;;;;;;;;;4999679;28;25152;-66
2024/02/23 09:50:41;;;;;;;8.48;2.55;;;;;;;;;;5008120;28;25055;-66
2024/02/23 09:53:10;;;;;;;5.28;1.77;;;;;;;;;;4995043;28;25074;-68
2024/02/23 09:55:36;;;;;;;8.85;2.83;;;;;;;;;;5002018;28;25064;-67
2024/02/23 09:58:03;;;;;;;12.82;2.50;;;;;;;;;;4990308;28;25062;-67
2024/02/23 10:00:30;;;;;;;12.13;2.55;;;;;;;;;;5005527;28;25062;-67
2024/02/23 10:02:56;;;;;;;11.82;2.53;;;;;;;;;;5009035;28;25169;-67
2024/02/23 10:05:30;;;;;;;13.40;2.80;;;;;;;;;;5000944;28;25140;-67
2024/02/23 10:07:58;;;;;;;7.10;2.47;;;;;;;;;;5004901;28;25094;-67
2024/02/23 10:10:33;;;;;;;9.40;2.20;;;;;;;;;;5006713;28;25071;-67
2024/02/23 10:13:00;;;;;;;11.52;2.20;;;;;;;;;;5003619;28;25130;-66
2024/02/23 10:15:26;;;;;;;10.38;2.28;;;;;;;;;;5004489;28;25126;-70
2024/02/23 10:17:54;;;;;;;10.70;2.58;;;;;;;;;;5007662;28;25072;-66
2024/02/23 10:20:20;;;;;;;10.30;2.40;;;;;;;;;;4998794;28;25053;-66
2024/02/23 10:22:46;;;;;;;14.02;2.70;;;;;;;;;;5005707;28;25067;-67
2024/02/23 10:25:12;;;;;;;15.10;2.63;;;;;;;;;;4973913;28;25071;-66
2024/02/23 10:27:38;;;;;;;4.35;2.55;;;;;;;;;;5000334;28;25059;-67
2024/02/23 10:30:04;;;;;;;10.27;2.88;;;;;;;;;;5004119;28;25075;-67
2024/02/23 10:32:30;;;;;;;12.45;3.25;;;;;;;;;;5006518;28;25074;-67
2024/02/23 10:35:00;;;;;;;12.80;3.20;;;;;;;;;;5008177;28;25068;-68
2024/02/23 10:37:27;;;;;;;9.18;3.75;;;;;;;;;;5005012;28;25049;-67
2024/02/23 10:39:58;;;;;;;10.70;2.78;;;;;;;;;;5006271;28;25056;-68
2024/02/23 10:42:25;;;;;;;12.60;2.90;;;;;;;;;;5009889;28;25046;-66
2024/02/23 10:44:51;;;;;;;9.18;2.78;;;;;;;;;;4995896;28;25069;-68
2024/02/23 10:47:18;;;;;;;9.93;2.55;;;;;;;;;;5000999;28;25065;-68
2024/02/23 10:49:45;;;;;;;10.43;2.50;;;;;;;;;;5005671;28;25053;-69
2024/02/23 10:52:13;;;;;;;7.57;2.60;;;;;;;;;;4989683;28;25072;-64
2024/02/23 10:54:40;;;;;;;8.57;2.55;;;;;;;;;;5005668;28;25071;-68
2024/02/23 10:57:07;;;;;;;8.10;2.70;;;;;;;;;;5002433;28;25058;-68
2024/02/23 10:59:33;;;;;;;7.03;2.72;;;;;;;;;;5004470;28;25054;-65
2024/02/23 11:02:00;;;;;;;8.25;2.30;;;;;;;;;;4999555;28;25059;-68
2024/02/23 11:04:27;;;;;;;9.50;2.42;;;;;;;;;;4998167;28;25072;-66
2024/02/23 11:06:53;;;;;;;9.15;2.67;;;;;;;;;;4985443;28;25044;-68
2024/02/23 11:09:23;;;;;;;8.95;2.25;;;;;;;;;;5004088;28;25100;-66
2024/02/23 11:11:54;;;;;;;7.63;2.20;;;;;;;;;;5003314;28;25059;-67
2024/02/23 11:14:29;;;;;;;8.43;1.98;;;;;;;;;;5005470;28;25068;-68
2024/02/23 11:16:55;;;;;;;6.85;2.25;;;;;;;;;;4988438;28;25047;-70
2024/02/23 11:19:21;;;;;;;5.30;1.98;;;;;;;;;;5004953;28;25067;-66
2024/02/23 11:21:53;;;;;;;4.38;2.00;;;;;;;;;;4986449;28;25070;-68
2024/02/23 11:24:19;;;;;;;10.50;1.77;;;;;;;;;;5005959;28;25099;-69
2024/02/23 11:26:48;;;;;;;5.88;1.50;;;;;;;;;;5005485;28;25095;-68
2024/02/23 11:29:14;;;;;;;4.60;1.90;;;;;;;;;;5006052;28;25057;-70
2024/02/23 11:31:47;;;;;;;4.50;1.55;;;;;;;;;;5001900;28;25096;-66
2024/02/23 11:34:13;;;;;;;;;;;;;;;;;;5005574;28;25098;-69
2024/02/23 11:36:39;;;;;;;7.25;1.98;;;;;;;;;;4991734;28;24984;-67
2024/02/23 11:39:05;;;;;;;7.55;2.15;;;;;;;;;;5006426;28;25065;-65
2024/02/23 11:41:31;;;;;;;7.40;2.55;;;;;;;;;;5018291;28;25069;-64
2024/02/23 11:43:58;;;;;;;8.43;2.10;;;;;;;;;;5021787;28;25067;-68
2024/02/23 11:46:24;;;;;;;5.38;1.90;;;;;;;;;;5006523;28;25100;-67
2024/02/23 11:48:54;;;;;;;13.73;1.90;;;;;;;;;;5010943;28;25078;-65
2024/02/23 11:51:26;;;;;;;3.75;1.92;;;;;;;;;;5005119;28;25064;-68
2024/02/23 11:53:52;;;;;;;;;;;;;;;;;;5003631;28;25067;-67
2024/02/23 11:56:19;;;;;;;4.95;1.88;;;;;;;;;;4995166;28;24089;-66
2024/02/23 11:58:45;;;;;;;8.07;2.20;;;;;;;;;;5006756;28;25089;-64
2024/02/23 12:01:11;;;;;;;9.38;2.13;;;;;;;;;;5005306;28;25077;-67
2024/02/23 12:03:39;;;;;;;6.60;1.90;;;;;;;;;;5004078;28;25049;-68
2024/02/23 12:06:05;;;;;;;8.10;2.03;;;;;;;;;;5000685;28;25063;-67
2024/02/23 12:08:37;;;;;;;7.72;2.53;;;;;;;;;;5005623;28;25059;-66
2024/02/23 12:11:04;;;;;;;9.73;2.00;;;;;;;;;;5003763;28;25093;-66
2024/02/23 12:13:31;;;;;;;6.32;1.60;;;;;;;;;;5005808;28;25078;-66
2024/02/23 12:15:57;;;;;;;8.05;1.52;;;;;;;;;;5004897;28;25133;-66
2024/02/23 12:18:23;;;;;;;8.15;2.10;;;;;;;;;;5004090;28;25101;-69
2024/02/23 12:20:49;;;;;;;11.88;2.63;;;;;;;;;;4984038;28;25069;-66
2024/02/23 12:23:15;;;;;;;7.38;1.42;;;;;;;;;;5000887;28;25151;-65
2024/02/23 12:25:53;;;;;;;9.00;1.95;;;;;;;;;;5000265;28;25074;-65
2024/02/23 12:28:19;;;;;;;7.85;2.05;;;;;;;;;;5001132;28;25067;-66
2024/02/23 12:30:46;;;;;;;6.28;2.00;;;;;;;;;;5005040;28;25096;-67
2024/02/23 12:33:15;;;;;;;9.40;2.53;;;;;;;;;;5006423;28;25084;-68
2024/02/23 12:35:41;;;;;;;7.05;1.63;;;;;;;;;;5011582;28;25069;-71
2024/02/23 12:38:07;;;;;;;7.18;1.88;;;;;;;;;;5013205;28;25062;-66
2024/02/23 12:40:33;;;;;;;8.20;2.10;;;;;;;;;;5012767;28;25077;-70
2024/02/23 12:42:59;;;;;;;8.45;2.42;;;;;;;;;;4989461;28;25149;-69
2024/02/23 12:45:25;;;;;;;4.68;1.58;;;;;;;;;;5006683;28;25097;-66
2024/02/23 12:47:51;;;;;;;5.70;1.60;;;;;;;;;;5003689;28;25087;-67
2024/02/23 12:50:17;;;;;;;6.45;2.35;;;;;;;;;;4988861;28;25054;-68
2024/02/23 12:52:43;;;;;;;7.43;1.63;;;;;;;;;;5006131;28;25161;-66
2024/02/23 12:55:09;;;;;;;6.03;2.28;;;;;;;;;;5001646;28;25055;-64
2024/02/23 12:57:35;;;;;;;4.20;1.50;;;;;;;;;;5004715;28;25118;-65
2024/02/23 13:00:02;;;;;;;3.40;1.50;;;;;;;;;;5005735;28;25155;-67
2024/02/23 13:02:28;;;;;;;8.65;1.60;;;;;;;;;;5006344;28;25073;-62
2024/02/23 13:04:54;;;;;;;5.55;2.42;;;;;;;;;;5004261;28;25129;-62
2024/02/23 13:07:20;;;;;;;5.80;1.73;;;;;;;;;;5004896;28;25095;-66
2024/02/23 13:09:47;;;;;;;4.88;1.77;;;;;;;;;;5004884;28;25064;-67
2024/02/23 13:12:13;;;;;;;7.20;2.22;;;;;;;;;;4995155;28;25089;-65
2024/02/23 13:14:39;;;;;;;3.63;1.48;;;;;;;;;;5002041;28;25075;-66
2024/02/23 13:17:05;;;;;;;5.45;2.05;;;;;;;;;;4998776;28;25106;-65
2024/02/23 13:19:31;;;;;;;5.90;1.63;;;;;;;;;;5004049;28;25124;-66
2024/02/23 13:22:00;;;;;;;5.50;1.50;;;;;;;;;;5003938;28;25077;-65
2024/02/23 13:24:26;;;;;;;4.25;1.65;;;;;;;;;;4992080;28;25056;-65
2024/02/23 13:26:52;;;;;;;4.78;1.45;;;;;;;;;;5009310;28;25054;-65
2024/02/23 13:29:18;;;;;;;2.95;1.38;;;;;;;;;;4990272;28;25198;-65
2024/02/23 13:31:44;;;;;;;4.05;0.85;;;;;;;;;;5000776;28;25066;-66
2024/02/23 13:34:10;;;;;;;5.07;1.30;;;;;;;;;;5008021;28;25088;-68
2024/02/23 13:36:36;;;;;;;2.88;1.20;;;;;;;;;;5001219;28;25068;-65
2024/02/23 13:39:02;;;;;;;3.13;1.10;;;;;;;;;;5005121;28;25075;-66
2024/02/23 13:41:29;;;;;;;3.03;1.33;;;;;;;;;;5001393;28;25139;-66
2024/02/23 13:43:55;;;;;;;4.40;1.50;;;;;;;;;;5005180;28;25125;-67
2024/02/23 13:46:21;;;;;;;5.78;0.93;;;;;;;;;;5007695;28;25040;-66
2024/02/23 13:48:51;;;;;;;3.38;0.93;;;;;;;;;;5002513;28;25147;-64
2024/02/23 13:51:17;;;;;;;2.85;0.93;;;;;;;;;;5000829;28;25052;-65
2024/02/23 13:53:42;;;;;;;1.17;0.77;;;;;;;;;;4998971;28;25061;-65
2024/02/23 13:56:08;;;;;;;2.92;1.02;;;;;;;;;;4987625;28;25096;-65
2024/02/23 13:58:34;;;;;;;2.65;0.98;;;;;;;;;;5014480;28;25071;-64
2024/02/23 14:01:00;;;;;;;2.45;0.88;;;;;;;;;;5002947;28;25064;-63
2024/02/23 14:03:27;;;;;;;2.22;0.90;;;;;;;;;;5025929;28;25085;-63
2024/02/23 14:05:53;;;;;;;2.35;0.90;;;;;;;;;;5024327;28;25156;-66
2024/02/23 14:08:19;;;;;;;6.20;0.95;;;;;;;;;;5005107;28;25167;-65
2024/02/23 14:10:45;;;;;;;3.13;1.40;;;;;;;;;;5006968;28;25090;-64
2024/02/23 14:13:11;;;;;;;3.50;0.82;;;;;;;;;;4999600;28;25060;-65
2024/02/23 14:15:37;;;;;;;3.30;1.10;;;;;;;;;;5007949;28;25044;-65
2024/02/23 14:18:03;;;;;;;4.60;1.10;;;;;;;;;;4998070;28;25084;-66
2024/02/23 14:20:29;;;;;;;6.25;0.98;;;;;;;;;;4992832;28;25083;-66
2024/02/23 14:22:55;;;;;;;1.90;1.17;;;;;;;;;;5004988;28;25074;-66
2024/02/23 14:25:21;;;;;;;4.28;1.45;;;;;;;;;;4987858;28;25161;-65
2024/02/23 14:27:47;;;;;;;3.88;1.25;;;;;;;;;;5001317;28;25106;-66
2024/02/23 14:30:13;;;;;;;7.10;0.90;;;;;;;;;;4996874;28;25089;-65